sensor_id;sensor_type;location;lat;lon;timestamp;pressure;altitude;pressure_sealevel;temperature;humidity
35045;BME280;21231;48.394;34.964;2023-03-20T00:01:29;100510.50;;;3.10;100.00
35045;BME280;21231;48.394;34.964;2023-03-20T00:04:09;100504.97;;;3.05;100.00
35045;BME280;21231;48.394;34.964;2023-03-20T00:06:45;100509.94;;;3.04;100.00
35045;BME280;21231;48.394;34.964;2023-03-20T00:09:16;100498.84;;;3.03;100.00
35045;BME280;21231;48.394;34.964;2023-03-20T00:11:54;100494.34;;;3.01;100.00
35045;BME280;21231;48.394;34.964;2023-03-20T00:14:25;100497.53;;;2.98;100.00
35045;BME280;21231;48.394;34.964;2023-03-20T00:16:56;100492.03;;;2.93;100.00
35045;BME280;21231;48.394;34.964;2023-03-20T00:19:29;100495.31;;;2.92;100.00
35045;BME280;21231;48.394;34.964;2023-03-20T00:22:08;100484.09;;;2.90;100.00
35045;BME280;21231;48.394;34.964;2023-03-20T00:24:38;100483.34;;;2.91;100.00
35045;BME280;21231;48.394;34.964;2023-03-20T00:27:13;100482.22;;;2.79;100.00
35045;BME280;21231;48.394;34.964;2023-03-20T00:29:44;100476.09;;;2.77;100.00
35045;BME280;21231;48.394;34.964;2023-03-20T00:32:14;100483.25;;;2.81;100.00
35045;BME280;21231;48.394;34.964;2023-03-20T00:34:50;100475.19;;;2.76;100.00
35045;BME280;21231;48.394;34.964;2023-03-20T00:37:20;100478.97;;;2.71;100.00
35045;BME280;21231;48.394;34.964;2023-03-20T00:39:53;100483.44;;;2.74;100.00
35045;BME280;21231;48.394;34.964;2023-03-20T00:42:30;100473.25;;;2.74;100.00
35045;BME280;21231;48.394;34.964;2023-03-20T00:45:11;100480.59;;;2.70;100.00
35045;BME280;21231;48.394;34.964;2023-03-20T00:47:56;100472.72;;;2.67;100.00
35045;BME280;21231;48.394;34.964;2023-03-20T00:50:36;100471.03;;;2.68;100.00
35045;BME280;21231;48.394;34.964;2023-03-20T00:53:16;100472.56;;;2.66;100.00
35045;BME280;21231;48.394;34.964;2023-03-20T00:55:44;100472.72;;;2.67;100.00
35045;BME280;21231;48.394;34.964;2023-03-20T00:58:13;100468.34;;;2.66;100.00
35045;BME280;21231;48.394;34.964;2023-03-20T01:00:42;100469.41;;;2.68;100.00
35045;BME280;21231;48.394;34.964;2023-03-20T01:03:18;100473.44;;;2.66;100.00
35045;BME280;21231;48.394;34.964;2023-03-20T01:05:49;100476.91;;;2.67;100.00
35045;BME280;21231;48.394;34.964;2023-03-20T01:08:21;100471.81;;;2.67;100.00
35045;BME280;21231;48.394;34.964;2023-03-20T01:10:54;100468.34;;;2.66;100.00
35045;BME280;21231;48.394;34.964;2023-03-20T01:13:28;100472.41;;;2.64;100.00
35045;BME280;21231;48.394;34.964;2023-03-20T01:15:59;100469.88;;;2.64;100.00
35045;BME280;21231;48.394;34.964;2023-03-20T01:18:28;100473.91;;;2.62;100.00
35045;BME280;21231;48.394;34.964;2023-03-20T01:20:57;100472.88;;;2.60;100.00
35045;BME280;21231;48.394;34.964;2023-03-20T01:23:25;100471.56;;;2.55;100.00
35045;BME280;21231;48.394;34.964;2023-03-20T01:25:54;100465.56;;;2.54;100.00
35045;BME280;21231;48.394;34.964;2023-03-20T01:28:23;100469.78;;;2.54;100.00
35045;BME280;21231;48.394;34.964;2023-03-20T01:30:53;100467.97;;;2.53;100.00
35045;BME280;21231;48.394;34.964;2023-03-20T01:33:23;100457.38;;;2.48;100.00
35045;BME280;21231;48.394;34.964;2023-03-20T01:35:56;100462.34;;;2.47;100.00
35045;BME280;21231;48.394;34.964;2023-03-20T01:38:26;100469.19;;;2.48;100.00
35045;BME280;21231;48.394;34.964;2023-03-20T01:41:02;100460.88;;;2.40;100.00
35045;BME280;21231;48.394;34.964;2023-03-20T01:43:34;100462.94;;;2.44;100.00
35045;BME280;21231;48.394;34.964;2023-03-20T01:46:22;100459.50;;;2.43;100.00
35045;BME280;21231;48.394;34.964;2023-03-20T01:49:03;100457.25;;;2.47;100.00
35045;BME280;21231;48.394;34.964;2023-03-20T01:51:34;100462.94;;;2.44;100.00
35045;BME280;21231;48.394;34.964;2023-03-20T01:57:15;100465.81;;;2.38;100.00
35045;BME280;21231;48.394;34.964;2023-03-20T02:02:18;100472.59;;;2.29;100.00
35045;BME280;21231;48.394;34.964;2023-03-20T02:04:51;100474.84;;;2.26;100.00
35045;BME280;21231;48.394;34.964;2023-03-20T02:07:21;100470.22;;;2.22;100.00
35045;BME280;21231;48.394;34.964;2023-03-20T02:10:08;100464.34;;;2.23;100.00
35045;BME280;21231;48.394;34.964;2023-03-20T02:12:50;100467.81;;;2.23;100.00
35045;BME280;21231;48.394;34.964;2023-03-20T02:15:29;100465.72;;;2.19;100.00
35045;BME280;21231;48.394;34.964;2023-03-20T02:18:13;100463.19;;;2.19;100.00
35045;BME280;21231;48.394;34.964;2023-03-20T02:21:05;100466.63;;;2.20;100.00
35045;BME280;21231;48.394;34.964;2023-03-20T02:38:12;100467.66;;;2.22;100.00
35045;BME280;21231;48.394;34.964;2023-03-20T02:41:07;100462.44;;;2.20;100.00
35045;BME280;21231;48.394;34.964;2023-03-20T02:47:10;100461.34;;;2.27;100.00
35045;BME280;21231;48.394;34.964;2023-03-20T02:52:31;100469.91;;;2.18;100.00
35045;BME280;21231;48.394;34.964;2023-03-20T02:56:04;100469.50;;;2.14;100.00
35045;BME280;21231;48.394;34.964;2023-03-20T03:00:55;100455.88;;;2.13;100.00
35045;BME280;21231;48.394;34.964;2023-03-20T03:03:32;100456.47;;;2.11;100.00
35045;BME280;21231;48.394;34.964;2023-03-20T03:06:14;100461.56;;;2.11;100.00
35045;BME280;21231;48.394;34.964;2023-03-20T03:08:49;100446.63;;;2.05;100.00
35045;BME280;21231;48.394;34.964;2023-03-20T03:11:20;100452.47;;;2.04;100.00
35045;BME280;21231;48.394;34.964;2023-03-20T03:13:53;100452.31;;;2.02;100.00
35045;BME280;21231;48.394;34.964;2023-03-20T03:16:29;100455.91;;;2.04;100.00
35045;BME280;21231;48.394;34.964;2023-03-20T03:19:14;100453.53;;;2.06;100.00
35045;BME280;21231;48.394;34.964;2023-03-20T03:21:47;100454.41;;;2.07;100.00
35045;BME280;21231;48.394;34.964;2023-03-20T03:24:49;100453.63;;;2.08;100.00
35045;BME280;21231;48.394;34.964;2023-03-20T03:27:28;100443.81;;;2.02;100.00
35045;BME280;21231;48.394;34.964;2023-03-20T03:30:11;100452.47;;;2.04;100.00
35045;BME280;21231;48.394;34.964;2023-03-20T03:35:16;100454.53;;;2.08;100.00
35045;BME280;21231;48.394;34.964;2023-03-20T03:37:57;100451.41;;;2.11;100.00
35045;BME280;21231;48.394;34.964;2023-03-20T03:40:44;100446.59;;;2.14;100.00
35045;BME280;21231;48.394;34.964;2023-03-20T03:45:55;100455.72;;;2.21;100.00
35045;BME280;21231;48.394;34.964;2023-03-20T03:48:33;100455.09;;;2.23;100.00
35045;BME280;21231;48.394;34.964;2023-03-20T03:51:07;100451.22;;;2.18;100.00
35045;BME280;21231;48.394;34.964;2023-03-20T03:53:53;100452.25;;;2.20;100.00
35045;BME280;21231;48.394;34.964;2023-03-20T03:56:25;100457.50;;;2.22;100.00
35045;BME280;21231;48.394;34.964;2023-03-20T03:58:58;100453.47;;;2.24;100.00
35045;BME280;21231;48.394;34.964;2023-03-20T04:01:30;100460.03;;;2.22;100.00
35045;BME280;21231;48.394;34.964;2023-03-20T04:04:06;100456.25;;;2.27;100.00
35045;BME280;21231;48.394;34.964;2023-03-20T04:06:36;100454.03;;;2.21;100.00
35045;BME280;21231;48.394;34.964;2023-03-20T04:09:06;100459.75;;;2.18;100.00
35045;BME280;21231;48.394;34.964;2023-03-20T04:11:35;100458.88;;;2.18;100.00
35045;BME280;21231;48.394;34.964;2023-03-20T04:14:04;100458.25;;;2.21;100.00
35045;BME280;21231;48.394;34.964;2023-03-20T04:16:33;100460.03;;;2.22;100.00
35045;BME280;21231;48.394;34.964;2023-03-20T04:19:02;100463.47;;;2.22;100.00
35045;BME280;21231;48.394;34.964;2023-03-20T04:21:30;100457.34;;;2.20;100.00
35045;BME280;21231;48.394;34.964;2023-03-20T04:23:58;100464.09;;;2.20;100.00
35045;BME280;21231;48.394;34.964;2023-03-20T04:26:27;100460.94;;;2.22;100.00
35045;BME280;21231;48.394;34.964;2023-03-20T04:28:57;100460.94;;;2.22;100.00
35045;BME280;21231;48.394;34.964;2023-03-20T04:31:49;100457.63;;;2.23;100.00
35045;BME280;21231;48.394;34.964;2023-03-20T04:34:43;100464.34;;;2.23;100.00
35045;BME280;21231;48.394;34.964;2023-03-20T04:37:34;100458.25;;;2.21;100.00
35045;BME280;21231;48.394;34.964;2023-03-20T04:40:06;100449.41;;;2.26;100.00
35045;BME280;21231;48.394;34.964;2023-03-20T04:42:36;100454.47;;;2.26;100.00
35045;BME280;21231;48.394;34.964;2023-03-20T04:45:07;100462.41;;;2.29;100.00
35045;BME280;21231;48.394;34.964;2023-03-20T04:47:38;100452.25;;;2.29;100.00
35045;BME280;21231;48.394;34.964;2023-03-20T04:50:07;100456.09;;;2.34;100.00
35045;BME280;21231;48.394;34.964;2023-03-20T04:52:36;100460.16;;;2.32;100.00
35045;BME280;21231;48.394;34.964;2023-03-20T04:55:05;100461.47;;;2.37;100.00
35045;BME280;21231;48.394;34.964;2023-03-20T04:57:34;100458.19;;;2.38;100.00
35045;BME280;21231;48.394;34.964;2023-03-20T05:00:04;100465.03;;;2.39;100.00
35045;BME280;21231;48.394;34.964;2023-03-20T05:02:33;100467.28;;;2.36;100.00
35045;BME280;21231;48.394;34.964;2023-03-20T05:05:01;100455.63;;;2.38;100.00
35045;BME280;21231;48.394;34.964;2023-03-20T05:07:31;100461.16;;;2.43;100.00
35045;BME280;21231;48.394;34.964;2023-03-20T05:10:04;100457.56;;;2.41;100.00
35045;BME280;21231;48.394;34.964;2023-03-20T05:12:42;100455.63;;;2.38;100.00
35045;BME280;21231;48.394;34.964;2023-03-20T05:15:37;100466.81;;;2.40;100.00
35045;BME280;21231;48.394;34.964;2023-03-20T05:18:22;100466.81;;;2.40;100.00
35045;BME280;21231;48.394;34.964;2023-03-20T05:21:04;100473.13;;;2.44;100.00
35045;BME280;21231;48.394;34.964;2023-03-20T05:23:51;100467.13;;;2.43;100.00
35045;BME280;21231;48.394;34.964;2023-03-20T05:26:34;100472.22;;;2.43;100.00
35045;BME280;21231;48.394;34.964;2023-03-20T05:29:08;100459.34;;;2.42;100.00
35045;BME280;21231;48.394;34.964;2023-03-20T05:31:59;100463.81;;;2.44;100.00
35045;BME280;21231;48.394;34.964;2023-03-20T05:34:35;100456.06;;;2.43;100.00
35045;BME280;21231;48.394;34.964;2023-03-20T05:37:11;100448.44;;;2.43;100.00
35045;BME280;21231;48.394;34.964;2023-03-20T05:40:00;100450.63;;;2.49;100.00
35045;BME280;21231;48.394;34.964;2023-03-20T05:42:52;100451.63;;;2.60;100.00
35045;BME280;21231;48.394;34.964;2023-03-20T05:45:41;100443.53;;;2.64;100.00
35045;BME280;21231;48.394;34.964;2023-03-20T05:48:39;100451.44;;;2.67;100.00
35045;BME280;21231;48.394;34.964;2023-03-20T05:51:16;100452.81;;;2.63;100.00
35045;BME280;21231;48.394;34.964;2023-03-20T05:54:07;100458.63;;;2.62;100.00
35045;BME280;21231;48.394;34.964;2023-03-20T05:56:53;100456.09;;;2.62;100.00
35045;BME280;21231;48.394;34.964;2023-03-20T05:59:43;100444.91;;;2.60;100.00
35045;BME280;21231;48.394;34.964;2023-03-20T06:02:12;100457.44;;;2.67;100.00
35045;BME280;21231;48.394;34.964;2023-03-20T06:04:48;100457.69;;;2.70;100.00
35045;BME280;21231;48.394;34.964;2023-03-20T06:07:25;100455.31;;;2.72;100.00
35045;BME280;21231;48.394;34.964;2023-03-20T06:10:03;100453.66;;;2.73;100.00
35045;BME280;21231;48.394;34.964;2023-03-20T06:12:32;100461.16;;;2.71;100.00
35045;BME280;21231;48.394;34.964;2023-03-20T06:15:01;100459.91;;;2.76;100.00
35045;BME280;21231;48.394;34.964;2023-03-20T06:17:32;100460.03;;;2.87;100.00
35045;BME280;21231;48.394;34.964;2023-03-20T06:20:03;100464.81;;;2.83;100.00
35045;BME280;21231;48.394;34.964;2023-03-20T06:22:32;100475.34;;;2.78;100.00
35045;BME280;21231;48.394;34.964;2023-03-20T06:25:03;100474.31;;;2.76;100.00
35045;BME280;21231;48.394;34.964;2023-03-20T06:27:39;100473.59;;;2.68;100.00
35045;BME280;21231;48.394;34.964;2023-03-20T06:30:09;100480.19;;;2.66;100.00
35045;BME280;21231;48.394;34.964;2023-03-20T06:32:39;100480.06;;;2.64;100.00
35045;BME280;21231;48.394;34.964;2023-03-20T06:35:12;100473.34;;;2.56;100.00
35045;BME280;21231;48.394;34.964;2023-03-20T06:37:47;100482.44;;;2.63;100.00
35045;BME280;21231;48.394;34.964;2023-03-20T06:40:21;100475.25;;;2.67;100.00
35045;BME280;21231;48.394;34.964;2023-03-20T06:42:51;100474.50;;;2.68;100.00
35045;BME280;21231;48.394;34.964;2023-03-20T06:45:21;100471.88;;;2.77;100.00
35045;BME280;21231;48.394;34.964;2023-03-20T06:47:57;100470.44;;;2.70;100.00
35045;BME280;21231;48.394;34.964;2023-03-20T06:50:25;100475.50;;;2.70;100.00
35045;BME280;21231;48.394;34.964;2023-03-20T06:59:12;100471.47;;;2.73;100.00
35045;BME280;21231;48.394;34.964;2023-03-20T07:01:55;100475.50;;;2.70;100.00
35045;BME280;21231;48.394;34.964;2023-03-20T07:04:30;100478.22;;;2.72;100.00
35045;BME280;21231;48.394;34.964;2023-03-20T07:07:01;100488.25;;;2.70;100.00
35045;BME280;21231;48.394;34.964;2023-03-20T07:09:34;100482.13;;;2.68;100.00
35045;BME280;21231;48.394;34.964;2023-03-20T07:12:16;100485.13;;;2.73;100.00
35045;BME280;21231;48.394;34.964;2023-03-20T07:14:52;100477.13;;;2.79;100.00
35045;BME280;21231;48.394;34.964;2023-03-20T07:17:26;100473.38;;;2.84;100.00
35045;BME280;21231;48.394;34.964;2023-03-20T07:19:58;100486.56;;;2.80;100.00
35045;BME280;21231;48.394;34.964;2023-03-20T07:22:31;100485.38;;;2.76;100.00
35045;BME280;21231;48.394;34.964;2023-03-20T07:25:23;100480.09;;;2.83;100.00
35045;BME280;21231;48.394;34.964;2023-03-20T07:28:15;100478.03;;;2.79;100.00
35045;BME280;21231;48.394;34.964;2023-03-20T07:30:54;100479.81;;;2.80;100.00
35045;BME280;21231;48.394;34.964;2023-03-20T07:33:30;100489.06;;;2.89;100.00
35045;BME280;21231;48.394;34.964;2023-03-20T07:36:02;100495.09;;;2.80;100.00
35045;BME280;21231;48.394;34.964;2023-03-20T07:38:41;100488.81;;;2.77;100.00
35045;BME280;21231;48.394;34.964;2023-03-20T07:41:15;100485.03;;;2.82;100.00
35045;BME280;21231;48.394;34.964;2023-03-20T07:43:59;100487.59;;;2.82;100.00
35045;BME280;21231;48.394;34.964;2023-03-20T07:46:57;100486.66;;;2.90;100.00
35045;BME280;21231;48.394;34.964;2023-03-20T07:49:31;100488.72;;;2.94;100.00
35045;BME280;21231;48.394;34.964;2023-03-20T07:52:00;100495.31;;;2.92;100.00
35045;BME280;21231;48.394;34.964;2023-03-20T07:54:31;100493.97;;;2.96;100.00
35045;BME280;21231;48.394;34.964;2023-03-20T07:57:08;100490.78;;;2.99;100.00
35045;BME280;21231;48.394;34.964;2023-03-20T07:59:45;100489.56;;;3.04;100.00
35045;BME280;21231;48.394;34.964;2023-03-20T08:02:15;100493.69;;;3.12;100.00
35045;BME280;21231;48.394;34.964;2023-03-20T08:04:45;100487.97;;;3.15;100.00
35045;BME280;21231;48.394;34.964;2023-03-20T08:07:15;100486.88;;;3.21;100.00
35045;BME280;21231;48.394;34.964;2023-03-20T08:09:45;100490.72;;;3.27;100.00
35045;BME280;21231;48.394;34.964;2023-03-20T08:12:14;100490.81;;;3.37;100.00
35045;BME280;21231;48.394;34.964;2023-03-20T08:14:44;100484.53;;;3.53;100.00
35045;BME280;21231;48.394;34.964;2023-03-20T08:17:15;100490.25;;;3.50;100.00
35045;BME280;21231;48.394;34.964;2023-03-20T08:19:53;100488.28;;;3.56;100.00
35045;BME280;21231;48.394;34.964;2023-03-20T08:22:24;100483.97;;;3.66;100.00
35045;BME280;21231;48.394;34.964;2023-03-20T08:24:57;100482.88;;;3.72;100.00
35045;BME280;21231;48.394;34.964;2023-03-20T08:27:27;100490.41;;;3.81;100.00
35045;BME280;21231;48.394;34.964;2023-03-20T08:29:56;100482.09;;;3.73;100.00
35045;BME280;21231;48.394;34.964;2023-03-20T08:32:27;100492.84;;;3.80;100.00
35045;BME280;21231;48.394;34.964;2023-03-20T08:34:58;100495.94;;;3.86;100.00
35045;BME280;21231;48.394;34.964;2023-03-20T08:37:29;100496.97;;;3.88;100.00
35045;BME280;21231;48.394;34.964;2023-03-20T08:39:57;100492.34;;;4.13;100.00
35045;BME280;21231;48.394;34.964;2023-03-20T08:42:26;100496.91;;;4.37;100.00
35045;BME280;21231;48.394;34.964;2023-03-20T08:44:58;100496.41;;;4.41;100.00
35045;BME280;21231;48.394;34.964;2023-03-20T08:47:27;100493.72;;;4.39;100.00
35045;BME280;21231;48.394;34.964;2023-03-20T08:49:56;100500.09;;;4.45;100.00
35045;BME280;21231;48.394;34.964;2023-03-20T08:52:27;100507.66;;;4.53;100.00
35045;BME280;21231;48.394;34.964;2023-03-20T08:54:59;100504.75;;;4.80;100.00
35045;BME280;21231;48.394;34.964;2023-03-20T08:57:29;100497.22;;;5.13;100.00
35045;BME280;21231;48.394;34.964;2023-03-20T09:00:02;100494.94;;;4.95;100.00
35045;BME280;21231;48.394;34.964;2023-03-20T09:02:34;100487.78;;;5.01;100.00
35045;BME280;21231;48.394;34.964;2023-03-20T09:05:06;100490.34;;;5.01;100.00
35045;BME280;21231;48.394;34.964;2023-03-20T09:07:36;100488.94;;;4.95;100.00
35045;BME280;21231;48.394;34.964;2023-03-20T09:10:06;100491.38;;;4.93;100.00
35045;BME280;21231;48.394;34.964;2023-03-20T09:12:36;100487.41;;;5.07;100.00
35045;BME280;21231;48.394;34.964;2023-03-20T09:15:09;100487.03;;;4.92;100.00
35045;BME280;21231;48.394;34.964;2023-03-20T09:17:39;100475.66;;;4.99;100.00
35045;BME280;21231;48.394;34.964;2023-03-20T09:20:12;100469.59;;;5.29;100.00
35045;BME280;21231;48.394;34.964;2023-03-20T09:22:41;100470.28;;;5.06;100.00
35045;BME280;21231;48.394;34.964;2023-03-20T09:25:16;100463.91;;;5.01;100.00
35045;BME280;21231;48.394;34.964;2023-03-20T09:27:45;100465.41;;;5.30;100.00
35045;BME280;21231;48.394;34.964;2023-03-20T09:30:14;100469.00;;;5.22;100.00
35045;BME280;21231;48.394;34.964;2023-03-20T09:32:46;100473.44;;;5.45;100.00
35045;BME280;21231;48.394;34.964;2023-03-20T09:35:16;100469.22;;;5.35;100.00
35045;BME280;21231;48.394;34.964;2023-03-20T09:37:46;100459.91;;;5.36;100.00
35045;BME280;21231;48.394;34.964;2023-03-20T09:40:37;100460.66;;;5.35;100.00
35045;BME280;21231;48.394;34.964;2023-03-20T09:49:11;100458.88;;;5.44;100.00
35045;BME280;21231;48.394;34.964;2023-03-20T09:54:36;100463.38;;;5.26;100.00
35045;BME280;21231;48.394;34.964;2023-03-20T10:00:13;100462.47;;;5.36;100.00
35045;BME280;21231;48.394;34.964;2023-03-20T10:02:59;100461.44;;;5.44;100.00
35045;BME280;21231;48.394;34.964;2023-03-20T10:05:30;100451.13;;;5.65;100.00
35045;BME280;21231;48.394;34.964;2023-03-20T10:08:04;100459.31;;;5.61;100.00
35045;BME280;21231;48.394;34.964;2023-03-20T10:11:42;100454.38;;;5.41;100.00
35045;BME280;21231;48.394;34.964;2023-03-20T10:17:24;100452.34;;;5.48;100.00
35045;BME280;21231;48.394;34.964;2023-03-20T10:20:12;100456.75;;;5.61;100.00
35045;BME280;21231;48.394;34.964;2023-03-20T10:22:49;100446.50;;;5.71;100.00
35045;BME280;21231;48.394;34.964;2023-03-20T10:25:47;100449.31;;;5.74;100.00
35045;BME280;21231;48.394;34.964;2023-03-20T10:28:50;100438.38;;;5.87;100.00
35045;BME280;21231;48.394;34.964;2023-03-20T10:31:40;100441.34;;;5.81;100.00
35045;BME280;21231;48.394;34.964;2023-03-20T10:34:47;100433.00;;;5.94;100.00
35045;BME280;21231;48.394;34.964;2023-03-20T10:42:44;100414.59;;;5.88;100.00
35045;BME280;21231;48.394;34.964;2023-03-20T10:45:38;100419.94;;;5.91;100.00
35045;BME280;21231;48.394;34.964;2023-03-20T10:51:16;100411.56;;;6.27;100.00
35045;BME280;21231;48.394;34.964;2023-03-20T10:53:48;100414.34;;;6.07;100.00
35045;BME280;21231;48.394;34.964;2023-03-20T10:56:31;100401.44;;;6.28;100.00
35045;BME280;21231;48.394;34.964;2023-03-20T10:59:15;100404.47;;;6.34;100.00
35045;BME280;21231;48.394;34.964;2023-03-20T11:01:51;100401.22;;;6.03;100.00
35045;BME280;21231;48.394;34.964;2023-03-20T11:04:21;100396.41;;;6.18;100.00
35045;BME280;21231;48.394;34.964;2023-03-20T11:07:30;100404.97;;;5.96;100.00
35045;BME280;21231;48.394;34.964;2023-03-20T11:12:40;100401.81;;;6.33;100.00
35045;BME280;21231;48.394;34.964;2023-03-20T11:15:26;100388.75;;;6.30;100.00
35045;BME280;21231;48.394;34.964;2023-03-20T11:18:04;100389.47;;;6.39;100.00
35045;BME280;21231;48.394;34.964;2023-03-20T11:20:54;100388.47;;;6.37;100.00
35045;BME280;21231;48.394;34.964;2023-03-20T11:23:26;100390.13;;;6.36;100.00
35045;BME280;21231;48.394;34.964;2023-03-20T11:25:58;100384.47;;;6.41;100.00
35045;BME280;21231;48.394;34.964;2023-03-20T11:28:37;100385.25;;;6.17;100.00
35045;BME280;21231;48.394;34.964;2023-03-20T11:33:45;100382.66;;;6.05;100.00
35045;BME280;21231;48.394;34.964;2023-03-20T11:36:30;100382.56;;;5.93;100.00
35045;BME280;21231;48.394;34.964;2023-03-20T11:39:15;100375.34;;;5.88;100.00
35045;BME280;21231;48.394;34.964;2023-03-20T11:42:01;100364.91;;;5.96;100.00
35045;BME280;21231;48.394;34.964;2023-03-20T11:44:36;100358.69;;;5.93;100.00
35045;BME280;21231;48.394;34.964;2023-03-20T11:47:21;100367.19;;;6.04;100.00
35045;BME280;21231;48.394;34.964;2023-03-20T11:50:00;100365.69;;;6.18;100.00
35045;BME280;21231;48.394;34.964;2023-03-20T11:52:36;100358.97;;;6.30;100.00
35045;BME280;21231;48.394;34.964;2023-03-20T11:55:26;100360.84;;;6.33;100.00
35045;BME280;21231;48.394;34.964;2023-03-20T11:57:58;100366.19;;;6.36;100.00
35045;BME280;21231;48.394;34.964;2023-03-20T12:00:39;100367.22;;;6.16;100.00
35045;BME280;21231;48.394;34.964;2023-03-20T12:03:41;100361.44;;;6.18;100.00
35045;BME280;21231;48.394;34.964;2023-03-20T12:06:19;100360.59;;;6.30;100.00
35045;BME280;21231;48.394;34.964;2023-03-20T12:09:04;100356.41;;;6.30;100.00
35045;BME280;21231;48.394;34.964;2023-03-20T12:12:23;100359.13;;;6.56;100.00
35045;BME280;21231;48.394;34.964;2023-03-20T12:15:17;100363.13;;;6.52;100.00
35045;BME280;21231;48.394;34.964;2023-03-20T12:18:00;100364.06;;;6.77;100.00
35045;BME280;21231;48.394;34.964;2023-03-20T12:20:45;100343.88;;;6.57;100.00
35045;BME280;21231;48.394;34.964;2023-03-20T12:23:33;100342.91;;;7.03;100.00
35045;BME280;21231;48.394;34.964;2023-03-20T12:26:13;100351.59;;;7.41;100.00
35045;BME280;21231;48.394;34.964;2023-03-20T12:32:00;100346.50;;;6.93;100.00
35045;BME280;21231;48.394;34.964;2023-03-20T12:34:55;100340.91;;;6.87;100.00
35045;BME280;21231;48.394;34.964;2023-03-20T12:37:32;100330.41;;;6.72;100.00
35045;BME280;21231;48.394;34.964;2023-03-20T12:40:03;100338.22;;;6.85;100.00
35045;BME280;21231;48.394;34.964;2023-03-20T12:45:11;100341.34;;;6.69;100.00
35045;BME280;21231;48.394;34.964;2023-03-20T12:57:10;100341.53;;;6.60;100.00
35045;BME280;21231;48.394;34.964;2023-03-20T12:59:50;100344.25;;;6.74;100.00
35045;BME280;21231;48.394;34.964;2023-03-20T13:11:03;100337.56;;;7.12;100.00
35045;BME280;21231;48.394;34.964;2023-03-20T13:13:46;100337.13;;;7.18;100.00
35045;BME280;21231;48.394;34.964;2023-03-20T13:16:45;100324.63;;;7.22;100.00
35045;BME280;21231;48.394;34.964;2023-03-20T13:19:35;100323.09;;;7.12;100.00
35045;BME280;21231;48.394;34.964;2023-03-20T13:25:20;100327.53;;;6.67;100.00
35045;BME280;21231;48.394;34.964;2023-03-20T13:40:10;100315.47;;;6.42;100.00
35045;BME280;21231;48.394;34.964;2023-03-20T13:42:46;100327.41;;;6.19;100.00
35045;BME280;21231;48.394;34.964;2023-03-20T13:45:41;100319.66;;;5.95;100.00
35045;BME280;21231;48.394;34.964;2023-03-20T13:53:56;100310.00;;;6.03;100.00
35045;BME280;21231;48.394;34.964;2023-03-20T13:56:49;100313.06;;;6.21;100.00
35045;BME280;21231;48.394;34.964;2023-03-20T14:03:25;100306.72;;;5.94;100.00
35045;BME280;21231;48.394;34.964;2023-03-20T14:05:58;100301.53;;;5.70;100.00
35045;BME280;21231;48.394;34.964;2023-03-20T14:13:48;100297.84;;;5.44;100.00
35045;BME280;21231;48.394;34.964;2023-03-20T14:16:21;100300.28;;;5.32;100.00
35045;BME280;21231;48.394;34.964;2023-03-20T14:19:06;100291.03;;;5.22;100.00
35045;BME280;21231;48.394;34.964;2023-03-20T14:21:45;100294.09;;;5.18;100.00
35045;BME280;21231;48.394;34.964;2023-03-20T14:24:28;100287.81;;;5.25;100.00
35045;BME280;21231;48.394;34.964;2023-03-20T14:27:04;100287.81;;;5.25;100.00
35045;BME280;21231;48.394;34.964;2023-03-20T14:29:51;100281.03;;;5.25;100.00
35045;BME280;21231;48.394;34.964;2023-03-20T14:32:30;100283.19;;;5.31;100.00
35045;BME280;21231;48.394;34.964;2023-03-20T14:35:24;100279.50;;;5.27;100.00
35045;BME280;21231;48.394;34.964;2023-03-20T14:40:48;100276.94;;;5.27;100.00
35045;BME280;21231;48.394;34.964;2023-03-20T14:49:18;100274.84;;;5.34;100.00
35045;BME280;21231;48.394;34.964;2023-03-20T14:51:52;100280.25;;;5.26;100.00
35045;BME280;21231;48.394;34.964;2023-03-20T14:54:30;100285.91;;;5.22;100.00
35045;BME280;21231;48.394;34.964;2023-03-20T14:57:18;100288.22;;;5.19;100.00
35045;BME280;21231;48.394;34.964;2023-03-20T14:59:50;100288.63;;;5.13;100.00
35045;BME280;21231;48.394;34.964;2023-03-20T15:02:33;100287.25;;;5.07;100.00
35045;BME280;21231;48.394;34.964;2023-03-20T15:05:24;100280.09;;;5.02;100.00
35045;BME280;21231;48.394;34.964;2023-03-20T15:08:02;100282.94;;;4.95;100.00
35045;BME280;21231;48.394;34.964;2023-03-20T15:10:34;100274.78;;;4.78;100.00
35045;BME280;21231;48.394;34.964;2023-03-20T15:13:07;100286.19;;;4.72;100.00
35045;BME280;21231;48.394;34.964;2023-03-20T15:16:12;100292.44;;;4.65;100.00
35045;BME280;21231;48.394;34.964;2023-03-20T15:18:57;100288.63;;;4.60;100.00
35045;BME280;21231;48.394;34.964;2023-03-20T15:21:30;100286.47;;;4.54;100.00
35045;BME280;21231;48.394;34.964;2023-03-20T15:24:00;100292.47;;;4.55;100.00
35045;BME280;21231;48.394;34.964;2023-03-20T15:26:33;100293.00;;;4.50;100.00
35045;BME280;21231;48.394;34.964;2023-03-20T15:29:06;100292.59;;;4.46;100.00
35045;BME280;21231;48.394;34.964;2023-03-20T15:31:37;100295.28;;;4.37;100.00
35045;BME280;21231;48.394;34.964;2023-03-20T15:34:21;100297.31;;;4.31;100.00
35045;BME280;21231;48.394;34.964;2023-03-20T15:37:04;100306.25;;;4.25;100.00
35045;BME280;21231;48.394;34.964;2023-03-20T15:39:49;100300.41;;;4.16;100.00
35045;BME280;21231;48.394;34.964;2023-03-20T15:42:22;100304.59;;;4.05;100.00
35045;BME280;21231;48.394;34.964;2023-03-20T15:44:54;100305.59;;;3.97;100.00